»·PEaware :: N8962V KSAN-KSEE

N8962V :: KSAN-KSEE

FLIGHT INFORMATION

Flight Status: Arrived
Operator: Privately registered:
United States
More flights under this callsign
Pilot: Hans Ulrich M. (216)
Aircraft: CESSNA 172 SKYHAWK
(C172)
More flights by this aircraft type
Origin: KSAN San Diego Intl-Lindbergh
United States
Destination: KSEE Gillespie
United States
More flights between these airports :: More routes between these airports
Route: KSAN KMYF KSEE
File this flight plan on PilotEdge
Remarks: from KSAN to KSEE with full stop landing in KMYF / V /
Altitude:
(Current/Filed)
2,000ft
Speed:
(Current/Filed)
100kts
Departed: 14-Mar-13 01:48 PM
Arrived: 14-Mar-13 02:25 PM
Distance/Time
Traveled:
12nm/0:36
Distance/Time
To Go:
Arrived

Flight Plot

Page will automatically refresh every two minutes.


Map Options




Map Legend


Flown Route
Filed Route
Departure Airport
Arrival Airport
Navaid (VOR, NDB)
Fix

Horizontal Profiles

Position Reports

Time Latitude Longitude Heading Altitude Ground
Speed
14-Mar-13 13:31 32.733031 -117.179253 50 18ft 0kts
14-Mar-13 13:32 32.733031 -117.179252 50 18ft 0kts
14-Mar-13 13:33 32.733032 -117.179250 50 18ft 0kts
14-Mar-13 13:34 32.733033 -117.179249 50 18ft 0kts
14-Mar-13 13:35 32.733034 -117.179248 50 18ft 0kts
14-Mar-13 13:36 32.733035 -117.179247 50 18ft 0kts
14-Mar-13 13:37 32.733036 -117.179245 50 18ft 0kts
14-Mar-13 13:38 32.733037 -117.179244 50 18ft 0kts
14-Mar-13 13:39 32.733037 -117.179243 50 18ft 0kts
14-Mar-13 13:40 32.733038 -117.179241 50 18ft 0kts
14-Mar-13 13:41 32.733039 -117.179240 50 18ft 0kts
14-Mar-13 13:42 32.732562 -117.179196 194 18ft 2kts
14-Mar-13 13:43 32.731743 -117.178392 105 18ft 7kts
14-Mar-13 13:44 32.730885 -117.174860 150 18ft 0kts
14-Mar-13 13:45 32.730784 -117.174883 236 18ft 4kts
14-Mar-13 13:46 32.730551 -117.175160 193 18ft 7kts
14-Mar-13 13:47 32.730646 -117.177755 288 18ft 34kts
14-Mar-13 13:48 32.735817 -117.200449 287 687ft 79kts
14-Mar-13 13:49 32.759376 -117.201991 3 1226ft 100kts
14-Mar-13 13:50 32.789203 -117.197640 348 1443ft 108kts
14-Mar-13 13:51 32.802910 -117.223231 339 1192ft 103kts
14-Mar-13 13:52 32.806846 -117.196586 153 1005ft 93kts
14-Mar-13 13:53 32.783257 -117.191899 119 881ft 88kts
14-Mar-13 13:54 32.797084 -117.174791 7 1096ft 89kts
14-Mar-13 13:55 32.818951 -117.159027 31 1156ft 95kts
14-Mar-13 13:56 32.835957 -117.137708 123 1295ft 91kts
14-Mar-13 13:57 32.823692 -117.112507 95 987ft 99kts
14-Mar-13 13:58 32.814719 -117.119401 244 680ft 73kts
14-Mar-13 13:59 32.815914 -117.139086 299 430ft 25kts
14-Mar-13 14:00 32.816118 -117.141214 185 430ft 7kts
14-Mar-13 14:01 32.814621 -117.144128 192 430ft 6kts
14-Mar-13 14:02 32.812671 -117.143962 237 430ft 0kts
14-Mar-13 14:03 32.812669 -117.143967 236 430ft 0kts
14-Mar-13 14:04 32.812666 -117.143973 236 430ft 0kts
14-Mar-13 14:05 32.812663 -117.143978 236 430ft 0kts
14-Mar-13 14:06 32.813497 -117.145529 345 430ft 6kts
14-Mar-13 14:07 32.814964 -117.143435 63 430ft 7kts
14-Mar-13 14:08 32.814160 -117.140195 114 430ft 17kts
14-Mar-13 14:09 32.812698 -117.136296 82 430ft 5kts
14-Mar-13 14:10 32.812822 -117.136091 27 430ft 0kts
14-Mar-13 14:11 32.813360 -117.136302 296 430ft 10kts
14-Mar-13 14:12 32.820519 -117.155177 300 956ft 73kts
14-Mar-13 14:13 32.833375 -117.143669 121 1480ft 100kts
14-Mar-13 14:14 32.808968 -117.127322 146 1578ft 103kts
14-Mar-13 14:15 32.789833 -117.100141 139 1581ft 111kts
14-Mar-13 14:16 32.768392 -117.075286 124 1698ft 101kts
14-Mar-13 14:17 32.779745 -117.060610 300 1814ft 85kts
14-Mar-13 14:18 32.765738 -117.062775 116 1862ft 106kts
14-Mar-13 14:19 32.777285 -117.035027 30 1943ft 106kts
14-Mar-13 14:20 32.794674 -117.010667 55 1871ft 89kts
14-Mar-13 14:21 32.802677 -116.981583 86 1387ft 92kts
14-Mar-13 14:22 32.803071 -116.952824 93 1240ft 81kts
14-Mar-13 14:23 32.814547 -116.936431 333 1029ft 72kts
14-Mar-13 14:24 32.825481 -116.959623 282 664ft 74kts
14-Mar-13 14:25 32.828505 -116.973259 2 390ft 6kts
14-Mar-13 14:26 32.829387 -116.973015 79 390ft 6kts
14-Mar-13 14:27 32.829314 -116.970885 92 390ft 4kts
14-Mar-13 14:28 32.829379 -116.970635 74 390ft 0kts

Navigation Log

Ident Type
Flight plan parsing failed, navigation log unavailable